Time;durP1;ratioP1;P1;durP2;ratioP2;P2;SDS_P1;SDS_P2;PMS_P1;PMS_P2;Temp;Humidity;BMP_temperature;BMP_pressure;BME280_temperature;BME280_humidity;BME280_pressure;Samples;Min_cycle;Max_cycle;Signal;HPM_P1;HPM_P2
2023/08/11 00:00:47;;;;;;;4.85;2.88;;;;;;;17.64;59.86;96123.03;5034315;28;20179;-84
2023/08/11 00:03:13;;;;;;;3.13;2.65;;;;;;;17.63;59.64;96126.66;5051814;28;20190;-84
2023/08/11 00:05:39;;;;;;;2.90;2.70;;;;;;;17.61;59.51;96133.06;5030050;28;20250;-85
2023/08/11 00:08:08;;;;;;;4.22;2.97;;;;;;;17.60;59.96;96116.50;5022913;28;20197;-85
2023/08/11 00:10:34;;;;;;;3.00;2.70;;;;;;;17.59;59.59;96129.81;5028561;28;20282;-83
2023/08/11 00:13:01;;;;;;;3.03;2.70;;;;;;;17.56;59.91;96137.03;5015701;28;20203;-84
2023/08/11 00:15:28;;;;;;;3.35;2.70;;;;;;;17.56;59.99;96131.78;5023131;28;20674;-83
2023/08/11 00:17:55;;;;;;;3.80;2.80;;;;;;;17.59;59.74;96124.56;5020422;28;20187;-83
2023/08/11 00:20:20;;;;;;;4.85;3.33;;;;;;;17.55;59.63;96130.16;5023348;28;20195;-83
2023/08/11 00:22:46;;;;;;;3.25;2.95;;;;;;;17.62;59.65;96132.91;5014831;28;20567;-83
2023/08/11 00:25:11;;;;;;;3.13;2.65;;;;;;;17.59;59.53;96135.06;5016371;28;20545;-84
2023/08/11 00:27:36;;;;;;;2.80;2.50;;;;;;;17.59;59.44;96132.44;5032192;28;20244;-84
2023/08/11 00:30:04;;;;;;;3.15;2.83;;;;;;;17.55;59.91;96130.16;5013395;28;20199;-84
2023/08/11 00:32:29;;;;;;;3.25;2.92;;;;;;;17.61;60.13;96127.81;5022551;28;20246;-84
2023/08/11 00:34:54;;;;;;;4.63;3.03;;;;;;;17.56;60.32;96137.03;5001409;28;20636;-84
2023/08/11 00:37:20;;;;;;;5.38;2.80;;;;;;;17.53;60.78;96134.78;5030429;28;20218;-84
2023/08/11 00:39:45;;;;;;;3.65;2.78;;;;;;;17.50;60.31;96134.31;5015139;28;20201;-83
2023/08/11 00:42:11;;;;;;;4.43;3.35;;;;;;;17.44;60.81;96141.06;5022142;28;20175;-85
2023/08/11 00:44:36;;;;;;;2.40;2.25;;;;;;;17.39;61.10;96140.78;5018024;28;20214;-85
2023/08/11 00:47:02;;;;;;;3.00;2.67;;;;;;;17.38;61.21;96143.56;5017723;28;20207;-84
2023/08/11 00:49:28;;;;;;;3.22;2.70;;;;;;;17.38;60.89;96144.41;5015518;28;20191;-85
2023/08/11 00:51:53;;;;;;;4.38;2.72;;;;;;;17.41;60.69;96143.25;5017044;28;20221;-85
2023/08/11 00:54:19;;;;;;;3.80;2.85;;;;;;;17.38;60.98;96148.81;5003780;28;20191;-85
2023/08/11 00:56:47;;;;;;;4.05;3.05;;;;;;;17.38;60.69;96143.56;5023379;28;20277;-85
2023/08/11 00:59:13;;;;;;;3.90;3.10;;;;;;;17.38;60.64;96143.56;5009965;28;20213;-85
2023/08/11 01:01:38;;;;;;;2.80;2.50;;;;;;;17.36;60.65;96146.38;5022533;28;20657;-85
2023/08/11 01:04:04;;;;;;;3.17;2.67;;;;;;;17.33;60.76;96141.50;5025882;28;20672;-85
2023/08/11 01:06:41;;;;;;;3.17;2.70;;;;;;;17.38;60.87;96144.41;5032661;28;20297;-84
2023/08/11 01:09:37;;;;;;;3.53;2.60;;;;;;;17.40;60.90;96142.41;5027695;28;20741;-84
2023/08/11 01:12:29;;;;;;;3.50;2.80;;;;;;;17.34;61.46;96139.69;5029642;28;20211;-84
2023/08/11 01:15:08;;;;;;;3.13;2.78;;;;;;;17.32;61.47;96144.31;5014477;28;20278;-84
2023/08/11 01:17:33;;;;;;;2.67;2.47;;;;;;;17.21;61.62;96135.00;5013488;28;20210;-83
2023/08/11 01:19:59;;;;;;;2.92;2.72;;;;;;;17.20;61.50;96134.19;5022031;28;20190;-84
2023/08/11 01:22:28;;;;;;;3.08;2.75;;;;;;;17.17;61.94;96137.16;5018608;28;20258;-83
2023/08/11 01:24:54;;;;;;;3.17;2.88;;;;;;;17.18;61.57;96128.28;5025202;28;20191;-84
2023/08/11 01:27:20;;;;;;;2.65;2.45;;;;;;;17.18;61.57;96128.28;5027008;28;20245;-84
2023/08/11 01:29:45;;;;;;;3.38;3.08;;;;;;;17.24;61.08;96132.84;5026156;28;20190;-83
2023/08/11 01:32:10;;;;;;;2.47;2.28;;;;;;;17.28;60.82;96133.31;5023661;28;20212;-84
2023/08/11 01:34:36;;;;;;;4.20;2.50;;;;;;;17.30;61.08;96133.13;5017977;28;20186;-84
2023/08/11 01:37:01;;;;;;;3.53;2.63;;;;;;;17.32;61.16;96125.94;5020651;28;20249;-83
2023/08/11 01:39:31;;;;;;;3.35;2.95;;;;;;;17.33;60.66;96135.44;5013685;28;20186;-83
2023/08/11 01:41:56;;;;;;;5.10;3.10;;;;;;;17.31;60.64;96122.44;5009340;28;20234;-84
2023/08/11 01:44:22;;;;;;;3.58;2.80;;;;;;;17.33;60.06;96130.19;5001478;28;20655;-83
2023/08/11 01:46:49;;;;;;;3.67;3.33;;;;;;;17.38;60.25;96133.06;5011712;28;20287;-83
2023/08/11 01:49:15;;;;;;;2.50;2.30;;;;;;;17.36;59.90;96132.44;5013273;28;20274;-83
2023/08/11 01:51:40;;;;;;;3.15;2.50;;;;;;;17.35;59.86;96129.00;5018932;28;20221;-84
2023/08/11 01:54:07;;;;;;;5.07;2.80;;;;;;;17.40;59.70;96131.09;5006176;28;20206;-82
2023/08/11 01:56:33;;;;;;;3.08;2.78;;;;;;;17.43;59.34;96133.38;5021259;28;21036;-83
2023/08/11 01:58:59;;;;;;;3.20;2.42;;;;;;;17.43;59.54;96130.75;5005915;28;20194;-83
2023/08/11 02:01:24;;;;;;;2.97;2.30;;;;;;;17.40;59.44;96131.91;5011690;28;20190;-83
2023/08/11 02:03:49;;;;;;;3.95;2.60;;;;;;;17.42;59.21;96129.94;5013727;28;20179;-83
2023/08/11 02:06:15;;;;;;;2.90;2.70;;;;;;;17.43;59.26;96130.75;5010738;28;20295;-83
2023/08/11 02:08:40;;;;;;;4.15;2.50;;;;;;;17.43;59.27;96130.75;5012886;28;20241;-84
2023/08/11 02:11:06;;;;;;;3.67;2.58;;;;;;;17.45;59.37;96128.75;5019415;28;20321;-83
2023/08/11 02:13:31;;;;;;;4.82;2.20;;;;;;;17.46;59.18;96131.22;5023685;28;20700;-83
2023/08/11 02:15:56;;;;;;;3.95;2.60;;;;;;;17.47;59.10;96129.41;5020293;28;20228;-82
2023/08/11 02:18:22;;;;;;;2.55;2.22;;;;;;;17.48;59.28;96131.84;5002518;28;20209;-84
2023/08/11 02:20:47;;;;;;;2.55;2.35;;;;;;;17.50;58.81;96129.88;5007122;28;20206;-83
2023/08/11 02:23:13;;;;;;;2.60;2.40;;;;;;;17.49;58.71;96124.78;5013877;28;20187;-84
2023/08/11 02:25:39;;;;;;;3.67;2.92;;;;;;;17.51;58.94;96115.75;5009927;28;20264;-83
2023/08/11 02:28:05;;;;;;;3.67;2.88;;;;;;;17.50;58.70;96118.56;5018888;28;20182;-83
2023/08/11 02:30:31;;;;;;;2.65;2.45;;;;;;;17.49;58.98;96109.03;5012910;28;20194;-83
2023/08/11 02:32:57;;;;;;;3.40;2.67;;;;;;;17.58;58.54;96115.88;5012465;28;20260;-83
2023/08/11 02:35:22;;;;;;;3.22;2.50;;;;;;;17.60;58.16;96121.75;5019083;28;20182;-83
2023/08/11 02:37:48;;;;;;;2.75;2.55;;;;;;;17.59;58.01;96109.63;5011953;28;20216;-83
2023/08/11 02:40:14;;;;;;;3.03;2.65;;;;;;;17.67;57.73;96120.06;5018112;28;20198;-83
2023/08/11 02:42:53;;;;;;;2.67;2.42;;;;;;;17.67;57.33;96116.59;5013848;28;20186;-83
2023/08/11 02:45:19;;;;;;;2.95;2.63;;;;;;;17.70;57.37;96113.66;5013695;28;20291;-84
2023/08/11 02:47:44;;;;;;;3.40;2.78;;;;;;;17.70;57.19;96117.09;5014088;28;20206;-83
2023/08/11 02:50:10;;;;;;;3.50;2.38;;;;;;;17.70;56.99;96118.91;5021911;28;20183;-83
2023/08/11 02:52:36;;;;;;;3.40;2.72;;;;;;;17.66;57.31;96117.59;5022440;28;20220;-83
2023/08/11 02:55:03;;;;;;;3.75;2.42;;;;;;;17.61;57.65;96117.31;5027367;28;20273;-84
2023/08/11 02:57:28;;;;;;;3.13;2.53;;;;;;;17.57;57.80;96116.84;5003278;28;20324;-83
2023/08/11 02:59:54;;;;;;;3.45;2.60;;;;;;;17.52;57.90;96113.94;5004375;28;20186;-83
2023/08/11 03:02:19;;;;;;;3.20;2.70;;;;;;;17.49;58.13;96116.91;5014641;28;20619;-84
2023/08/11 03:04:46;;;;;;;3.53;2.83;;;;;;;17.43;58.29;96122.88;5013739;28;20945;-84
2023/08/11 03:07:12;;;;;;;2.55;2.33;;;;;;;17.42;58.34;96122.06;5011312;28;20587;-83
2023/08/11 03:09:38;;;;;;;2.75;2.45;;;;;;;17.39;58.49;96116.31;5000468;28;20190;-84
2023/08/11 03:12:04;;;;;;;2.20;2.00;;;;;;;17.43;58.50;96117.63;5015971;28;20219;-83
2023/08/11 03:14:29;;;;;;;2.88;2.58;;;;;;;17.42;58.73;96118.63;5008277;28;20187;-84
2023/08/11 03:16:54;;;;;;;3.35;2.45;;;;;;;17.43;58.20;96109.75;5004504;28;20298;-83
2023/08/11 03:19:20;;;;;;;2.78;2.55;;;;;;;17.48;58.11;96102.16;5011903;28;20534;-84
2023/08/11 03:21:46;;;;;;;4.90;2.50;;;;;;;17.52;58.02;96098.19;5017428;28;20734;-85
2023/08/11 03:24:12;;;;;;;4.18;2.65;;;;;;;17.37;58.48;96092.06;5026536;28;20183;-84
2023/08/11 03:26:37;;;;;;;2.42;2.17;;;;;;;17.36;58.67;96111.44;5017083;28;20255;-84
2023/08/11 03:29:03;;;;;;;4.15;2.10;;;;;;;17.43;58.11;96105.31;5006186;28;20273;-83
2023/08/11 03:31:28;;;;;;;2.58;2.38;;;;;;;17.41;57.91;96109.13;5015919;28;20671;-82
2023/08/11 03:33:54;;;;;;;2.88;2.50;;;;;;;17.40;58.23;96104.84;5008264;28;20220;-83
2023/08/11 03:36:19;;;;;;;3.40;2.38;;;;;;;17.37;58.08;96095.50;5015753;28;20288;-84
2023/08/11 03:38:45;;;;;;;4.43;2.50;;;;;;;17.36;58.08;96093.06;5029748;28;20673;-84
2023/08/11 03:41:10;;;;;;;2.70;2.50;;;;;;;17.40;58.21;96092.53;5013965;28;20656;-84
2023/08/11 03:43:35;;;;;;;2.78;2.50;;;;;;;17.45;57.59;96095.44;5008594;28;20666;-84
2023/08/11 03:46:01;;;;;;;2.78;2.58;;;;;;;17.44;57.99;96096.44;5019715;28;20835;-84
2023/08/11 03:48:26;;;;;;;3.33;2.50;;;;;;;17.52;57.30;96098.19;5029418;28;20278;-83
2023/08/11 03:50:51;;;;;;;2.85;2.60;;;;;;;17.51;57.34;96101.81;5022447;28;20198;-84
2023/08/11 03:53:17;;;;;;;6.13;2.38;;;;;;;17.54;57.08;96102.25;5023053;28;20333;-84
2023/08/11 03:55:45;;;;;;;2.58;2.38;;;;;;;17.53;56.76;96100.63;5025544;28;20187;-84
2023/08/11 03:58:13;;;;;;;2.78;2.35;;;;;;;17.59;56.16;96098.31;5019153;28;20568;-84
2023/08/11 04:00:39;;;;;;;4.38;2.25;;;;;;;17.62;55.64;96103.19;5020057;28;20733;-84
2023/08/11 04:03:04;;;;;;;2.75;2.47;;;;;;;17.67;55.62;96113.97;5025511;28;20187;-83
2023/08/11 04:05:29;;;;;;;2.80;2.30;;;;;;;17.72;55.23;96103.78;5009509;28;20190;-83
2023/08/11 04:07:55;;;;;;;2.58;2.38;;;;;;;17.78;55.12;96109.16;5015227;28;20190;-84
2023/08/11 04:10:20;;;;;;;2.78;2.40;;;;;;;17.83;55.33;96101.53;5007894;28;20305;-83
2023/08/11 04:12:45;;;;;;;3.33;2.40;;;;;;;17.87;54.95;96101.19;5024335;28;20599;-83
2023/08/11 04:15:11;;;;;;;2.78;2.33;;;;;;;17.95;54.13;96101.13;5015077;28;20647;-83
2023/08/11 04:17:36;;;;;;;2.58;2.38;;;;;;;18.01;54.67;96105.63;5013962;28;20569;-84
2023/08/11 04:20:12;;;;;;;3.15;2.20;;;;;;;18.02;54.69;96107.25;5022232;28;20182;-84
2023/08/11 04:22:38;;;;;;;4.28;2.50;;;;;;;18.10;54.23;96109.81;5042976;28;20562;-85
2023/08/11 04:25:05;;;;;;;2.40;2.20;;;;;;;18.20;54.08;96105.13;5028952;28;20183;-83
2023/08/11 04:27:31;;;;;;;2.58;2.33;;;;;;;18.19;53.70;96100.84;5023063;28;20214;-85
2023/08/11 04:29:57;;;;;;;2.75;2.50;;;;;;;18.27;53.19;96105.19;5024707;28;20187;-84
2023/08/11 04:32:22;;;;;;;2.80;2.40;;;;;;;18.24;53.14;96111.63;5020022;28;20202;-84
2023/08/11 04:34:49;;;;;;;3.00;2.63;;;;;;;18.37;52.69;96117.06;5013576;28;20282;-84
2023/08/11 04:37:14;;;;;;;2.67;2.40;;;;;;;18.48;52.14;96109.72;5024710;28;20210;-84
2023/08/11 04:39:40;;;;;;;3.38;2.42;;;;;;;18.42;52.97;96115.72;5026258;28;20189;-84
2023/08/11 04:42:07;;;;;;;3.50;2.65;;;;;;;18.36;52.88;96112.78;5010451;28;20694;-84
2023/08/11 04:44:33;;;;;;;3.97;2.60;;;;;;;18.34;52.87;96109.53;5028920;28;20191;-83
2023/08/11 04:46:59;;;;;;;2.33;2.10;;;;;;;18.57;52.87;96106.81;5025100;28;20211;-83
2023/08/11 04:49:24;;;;;;;2.45;2.25;;;;;;;18.80;52.39;96108.50;5031244;28;20190;-84
2023/08/11 04:51:50;;;;;;;3.97;3.00;;;;;;;18.84;52.16;96112.41;5015559;28;20660;-83
2023/08/11 04:54:15;;;;;;;2.70;2.50;;;;;;;18.96;51.85;96108.28;5016530;28;20244;-84
2023/08/11 04:56:41;;;;;;;3.00;2.20;;;;;;;19.12;51.70;96110.69;5006283;28;20214;-85
2023/08/11 04:59:07;;;;;;;3.10;2.50;;;;;;;19.03;51.79;96108.38;5027996;28;20191;-84
2023/08/11 05:01:32;;;;;;;5.47;2.55;;;;;;;19.01;52.26;96118.28;5016863;28;20193;-85
2023/08/11 05:03:58;;;;;;;4.30;2.75;;;;;;;19.13;52.48;96111.50;5037331;28;20266;-83
2023/08/11 05:06:23;;;;;;;3.25;2.58;;;;;;;20.74;48.02;96111.50;5018984;28;20233;-83
2023/08/11 05:08:48;;;;;;;2.85;2.50;;;;;;;21.98;45.36;96117.22;5024964;28;20198;-84
2023/08/11 05:11:14;;;;;;;2.72;2.50;;;;;;;23.30;41.62;96118.66;5024199;28;20229;-84
2023/08/11 05:13:39;;;;;;;2.85;2.40;;;;;;;24.13;40.42;96126.44;5030219;28;20206;-83
2023/08/11 05:16:04;;;;;;;4.18;2.70;;;;;;;23.71;41.24;96123.50;5034075;28;20230;-85
2023/08/11 05:18:30;;;;;;;2.72;2.53;;;;;;;24.28;39.90;96126.06;5038351;28;20205;-86
2023/08/11 05:20:55;;;;;;;3.05;2.60;;;;;;;24.01;40.29;96115.69;5046177;28;20249;-80
2023/08/11 05:23:21;;;;;;;2.85;2.45;;;;;;;23.23;42.14;96115.22;5024454;28;20186;-85
2023/08/11 05:26:45;;;;;;;3.58;2.58;;;;;;;23.34;42.40;96127.81;5013545;28;20194;-85
2023/08/11 05:29:09;;;;;;;2.47;2.28;;;;;;;22.72;43.70;96128.50;4990447;28;20249;-85
2023/08/11 05:31:35;;;;;;;2.28;2.08;;;;;;;22.33;45.18;96128.38;4998563;28;20214;-86
2023/08/11 05:35:12;;;;;;;;;;;;;;;;;;;;;
2023/08/11 05:38:41;;;;;;;2.65;2.45;;;;;;;21.57;47.88;96133.28;4978646;28;20226;-85
2023/08/11 05:44:42;;;;;;;2.83;2.50;;;;;;;21.32;49.80;96132.22;4898660;29;20252;-85
2023/08/11 05:48:00;;;;;;;5.43;2.75;;;;;;;21.25;49.68;96131.38;4859714;29;20212;-86
2023/08/11 05:50:54;;;;;;;4.20;2.88;;;;;;;21.29;49.98;96137.91;4877643;29;20209;-85
2023/08/11 05:54:25;;;;;;;2.80;2.50;;;;;;;21.60;49.25;96132.88;4876544;29;20318;-85
2023/08/11 05:56:54;;;;;;;3.10;2.45;;;;;;;21.24;50.71;96129.75;4877869;29;20210;-84
2023/08/11 05:59:22;;;;;;;2.50;2.30;;;;;;;21.23;50.35;96133.41;4878363;29;20203;-84
2023/08/11 06:01:47;;;;;;;3.22;2.60;;;;;;;21.12;50.90;96142.72;4878841;29;20207;-84
2023/08/11 06:04:16;;;;;;;5.20;2.85;;;;;;;21.24;51.14;96141.13;4879460;29;20699;-84
2023/08/11 06:06:41;;;;;;;3.25;2.92;;;;;;;21.43;50.93;96143.03;4873937;29;20211;-83
2023/08/11 06:09:07;;;;;;;3.05;2.78;;;;;;;21.57;50.26;96145.69;4879343;29;20294;-83
2023/08/11 06:11:33;;;;;;;4.07;3.15;;;;;;;22.06;48.82;96130.22;4912008;29;20209;-84
2023/08/11 06:13:58;;;;;;;2.70;2.50;;;;;;;23.07;46.63;96142.25;4899475;29;20223;-82
2023/08/11 06:16:24;;;;;;;3.15;2.38;;;;;;;24.44;43.16;96141.47;4883209;29;20581;-84
2023/08/11 06:18:50;;;;;;;4.85;2.70;;;;;;;25.18;41.11;96139.63;4913499;29;20191;-84
2023/08/11 06:21:17;;;;;;;2.60;2.40;;;;;;;26.56;38.63;96143.00;4918734;29;20224;-83
2023/08/11 06:23:42;;;;;;;2.63;2.42;;;;;;;27.10;38.06;96152.41;4929023;29;20314;-84
2023/08/11 06:26:08;;;;;;;4.50;3.75;;;;;;;27.59;36.44;96145.63;4944848;28;20234;-86
2023/08/11 06:28:33;;;;;;;2.88;2.67;;;;;;;27.03;37.27;96147.25;5009138;28;20189;-85
2023/08/11 06:30:58;;;;;;;3.22;2.58;;;;;;;27.52;35.48;96152.94;5010257;28;20294;-84
2023/08/11 06:33:24;;;;;;;3.30;2.40;;;;;;;28.37;34.78;96162.69;5002894;28;20235;-84
2023/08/11 06:35:49;;;;;;;3.30;2.40;;;;;;;28.02;35.47;96164.78;5013590;28;20202;-82
2023/08/11 06:38:14;;;;;;;4.40;2.80;;;;;;;27.83;35.74;96167.69;5014736;28;20530;-81
2023/08/11 06:40:40;;;;;;;5.55;2.88;;;;;;;28.02;35.13;96156.78;5015558;28;20698;-82
2023/08/11 06:43:06;;;;;;;3.72;3.28;;;;;;;29.46;32.84;96161.94;5018636;28;20182;-82
2023/08/11 06:45:31;;;;;;;3.70;3.00;;;;;;;29.94;31.92;96162.94;5021320;28;20195;-84
2023/08/11 06:47:57;;;;;;;4.15;2.92;;;;;;;30.42;30.87;96167.38;5022447;28;20726;-83
2023/08/11 06:50:22;;;;;;;4.10;2.90;;;;;;;30.51;31.17;96172.25;5013282;28;20186;-84
2023/08/11 06:52:48;;;;;;;3.30;2.63;;;;;;;31.11;30.96;96169.13;4998831;28;20210;-82
2023/08/11 06:55:13;;;;;;;2.95;2.75;;;;;;;31.53;30.30;96168.97;5011941;28;20186;-83
2023/08/11 06:57:39;;;;;;;3.00;2.70;;;;;;;31.78;29.32;96172.81;5016933;28;20336;-82
2023/08/11 07:00:07;;;;;;;3.33;3.03;;;;;;;31.22;29.35;96170.78;5013931;28;20209;-84
2023/08/11 07:02:33;;;;;;;3.40;3.10;;;;;;;31.32;30.36;96170.00;5041641;28;20185;-82
2023/08/11 07:04:58;;;;;;;4.10;3.00;;;;;;;31.68;30.08;96175.47;5004054;28;20195;-85
2023/08/11 07:07:24;;;;;;;2.80;2.60;;;;;;;31.42;31.99;96177.28;5011818;28;20289;-83
2023/08/11 07:09:49;;;;;;;4.72;2.72;;;;;;;31.64;31.47;96177.88;5029414;28;20412;-82
2023/08/11 07:12:14;;;;;;;3.08;2.78;;;;;;;30.34;32.95;96180.44;5014546;28;20210;-83
2023/08/11 07:14:42;;;;;;;3.55;2.78;;;;;;;30.37;32.29;96179.91;5013696;28;20190;-82
2023/08/11 07:17:07;;;;;;;5.25;2.67;;;;;;;30.45;32.20;96176.75;5015175;28;20232;-83
2023/08/11 07:19:32;;;;;;;3.50;2.92;;;;;;;29.40;33.11;96176.31;5017547;28;20179;-82
2023/08/11 07:21:58;;;;;;;3.38;2.95;;;;;;;29.37;33.14;96171.47;5020006;28;20218;-84
2023/08/11 07:24:32;;;;;;;4.13;3.17;;;;;;;29.70;33.86;96183.09;5005519;28;20967;-87
2023/08/11 07:26:58;;;;;;;4.13;2.80;;;;;;;30.12;33.32;96185.88;5012317;28;20706;-85
2023/08/11 07:29:23;;;;;;;4.43;2.97;;;;;;;29.21;35.06;96180.38;5021122;28;20199;-86
2023/08/11 07:32:18;;;;;;;3.55;2.88;;;;;;;30.14;33.06;96186.47;5017305;28;20345;-86
2023/08/11 07:34:43;;;;;;;3.95;3.00;;;;;;;29.06;34.95;96191.69;5013119;28;20186;-85
2023/08/11 07:37:12;;;;;;;3.13;2.75;;;;;;;28.35;36.13;96190.66;5013106;28;20241;-85
2023/08/11 07:39:37;;;;;;;2.78;2.58;;;;;;;28.26;37.00;96192.09;5026926;28;20556;-85
2023/08/11 07:42:02;;;;;;;2.80;2.60;;;;;;;27.01;38.21;96191.94;5031410;28;20187;-84
2023/08/11 07:44:33;;;;;;;3.72;2.85;;;;;;;26.70;38.69;96195.81;5026843;28;20559;-84
2023/08/11 07:46:58;;;;;;;3.30;2.70;;;;;;;25.98;39.35;96200.50;5029147;28;20745;-84
2023/08/11 07:49:27;;;;;;;3.45;3.15;;;;;;;25.10;39.75;96203.72;5026802;28;20213;-83
2023/08/11 07:51:53;;;;;;;3.20;2.90;;;;;;;24.94;40.71;96201.63;5007885;28;20185;-84
2023/08/11 07:54:18;;;;;;;3.35;2.90;;;;;;;24.12;43.03;96203.56;5027891;28;20174;-81
2023/08/11 07:56:43;;;;;;;6.38;3.70;;;;;;;24.47;42.88;96204.75;5004580;28;20199;-82
2023/08/11 07:59:09;;;;;;;6.25;2.95;;;;;;;23.90;44.08;96206.59;5033114;28;20202;-82
2023/08/11 08:01:36;;;;;;;5.80;3.72;;;;;;;23.81;44.42;96207.88;5009750;28;20199;-82
2023/08/11 08:04:02;;;;;;;5.57;4.00;;;;;;;23.78;44.48;96203.03;5029434;28;20213;-83
2023/08/11 08:06:27;;;;;;;23.15;10.75;;;;;;;23.90;44.63;96216.41;5014040;28;20254;-83
2023/08/11 08:08:53;;;;;;;8.75;4.63;;;;;;;24.06;45.73;96215.06;5028940;28;20262;-83
2023/08/11 08:11:19;;;;;;;5.05;3.03;;;;;;;24.15;44.61;96213.78;5021527;28;20187;-82
2023/08/11 08:13:44;;;;;;;4.03;3.20;;;;;;;23.73;45.04;96216.91;5011635;28;20252;-84
2023/08/11 08:16:09;;;;;;;4.03;2.88;;;;;;;23.90;45.59;96217.22;5014308;28;20195;-82
2023/08/11 08:18:35;;;;;;;3.67;3.00;;;;;;;23.92;44.34;96223.09;5026012;28;20559;-82
2023/08/11 08:21:00;;;;;;;11.40;5.40;;;;;;;24.09;45.57;96225.25;4993630;28;20238;-82
2023/08/11 08:23:25;;;;;;;7.00;3.55;;;;;;;24.43;45.04;96221.31;5012782;28;20700;-83
2023/08/11 08:25:51;;;;;;;3.90;2.90;;;;;;;24.30;45.62;96223.03;5018929;28;20209;-83
2023/08/11 08:28:16;;;;;;;3.42;2.75;;;;;;;24.34;45.55;96220.78;5032237;28;20175;-82
2023/08/11 08:30:41;;;;;;;3.65;3.08;;;;;;;24.35;46.74;96222.41;5017521;28;20186;-84
2023/08/11 08:33:07;;;;;;;9.82;4.78;;;;;;;24.17;47.59;96223.13;5015927;28;20691;-83
2023/08/11 08:35:33;;;;;;;9.85;4.53;;;;;;;24.57;46.76;96214.88;5006372;28;20655;-84
2023/08/11 08:37:59;;;;;;;2.75;2.53;;;;;;;24.38;46.86;96221.97;5026289;28;20560;-84
2023/08/11 08:40:25;;;;;;;4.05;3.03;;;;;;;24.09;47.71;96222.59;5032929;28;20193;-82
2023/08/11 08:42:51;;;;;;;4.03;3.20;;;;;;;24.06;47.40;96226.50;5019452;28;20179;-81
2023/08/11 08:45:17;;;;;;;3.45;3.13;;;;;;;24.36;46.92;96215.25;5020706;28;20186;-82
2023/08/11 08:47:43;;;;;;;5.15;2.95;;;;;;;24.49;47.61;96220.47;5032115;28;20198;-83
2023/08/11 08:50:09;;;;;;;6.57;3.72;;;;;;;24.28;46.34;96222.41;5022584;28;20190;-82
2023/08/11 08:52:36;;;;;;;3.25;2.85;;;;;;;24.79;46.35;96215.25;5039237;28;20236;-83
2023/08/11 08:55:20;;;;;;;4.30;3.40;;;;;;;24.73;45.77;96216.94;5030905;28;20233;-83
2023/08/11 08:58:16;;;;;;;3.85;3.35;;;;;;;25.21;43.95;96229.53;5011823;28;20264;-83
2023/08/11 09:00:42;;;;;;;4.93;3.80;;;;;;;25.29;43.11;96225.75;5029016;28;20644;-84
2023/08/11 09:03:08;;;;;;;5.63;2.85;;;;;;;25.35;44.27;96222.19;5046434;28;20647;-82
2023/08/11 09:05:34;;;;;;;4.65;3.53;;;;;;;25.20;45.00;96219.13;5046870;28;20205;-83
2023/08/11 09:08:00;;;;;;;3.53;3.22;;;;;;;25.42;45.38;96221.06;5050227;28;20179;-84
2023/08/11 09:10:26;;;;;;;3.90;3.60;;;;;;;25.46;45.27;96218.78;5038235;28;20182;-85
2023/08/11 09:12:51;;;;;;;3.78;2.95;;;;;;;25.35;44.95;96223.00;5020169;28;20822;-83
2023/08/11 09:15:17;;;;;;;4.80;3.08;;;;;;;25.35;45.92;96220.34;5022287;28;20186;-82
2023/08/11 09:17:43;;;;;;;3.88;2.97;;;;;;;25.81;43.75;96221.63;5041435;28;20211;-84
2023/08/11 09:20:19;;;;;;;4.78;3.35;;;;;;;25.59;44.36;96217.78;5021494;28;20259;-83
2023/08/11 09:22:45;;;;;;;4.45;3.63;;;;;;;25.77;44.39;96214.31;5032412;28;20241;-84
2023/08/11 09:25:23;;;;;;;5.70;3.58;;;;;;;26.10;43.39;96216.47;5020181;28;20206;-84
2023/08/11 09:27:50;;;;;;;4.68;3.63;;;;;;;26.05;42.82;96213.66;5019016;28;20270;-84
2023/08/11 09:30:16;;;;;;;5.25;3.10;;;;;;;25.30;45.12;96206.94;5025071;28;20182;-83
2023/08/11 09:32:46;;;;;;;5.18;3.55;;;;;;;25.45;44.77;96216.38;5022056;28;20207;-84
2023/08/11 09:35:12;;;;;;;3.25;2.80;;;;;;;25.68;44.75;96219.91;5021749;28;20183;-84
2023/08/11 09:37:38;;;;;;;3.50;3.20;;;;;;;25.92;44.11;96220.03;5018278;28;20237;-83
2023/08/11 09:40:04;;;;;;;3.45;3.15;;;;;;;25.86;45.40;96216.41;5020705;28;20182;-84
2023/08/11 09:42:30;;;;;;;6.03;3.17;;;;;;;25.49;44.53;96221.00;5044489;28;20251;-83
2023/08/11 09:44:56;;;;;;;5.10;3.47;;;;;;;25.33;45.39;96213.63;5051029;28;20170;-82
2023/08/11 09:47:21;;;;;;;5.38;3.40;;;;;;;25.43;45.39;96217.38;5037342;28;20234;-83
2023/08/11 09:49:46;;;;;;;4.85;3.45;;;;;;;25.77;44.68;96215.13;5041741;28;20194;-83
2023/08/11 09:52:12;;;;;;;4.22;3.47;;;;;;;25.77;45.57;96216.97;5028946;28;20195;-83
2023/08/11 09:54:40;;;;;;;3.40;2.88;;;;;;;25.95;43.77;96222.22;5033098;28;20582;-84
2023/08/11 09:57:06;;;;;;;3.92;3.40;;;;;;;25.89;43.67;96218.63;5028937;28;20221;-84
2023/08/11 09:59:32;;;;;;;3.58;3.22;;;;;;;25.61;45.29;96221.84;5027916;28;20168;-83
2023/08/11 10:01:59;;;;;;;5.05;3.72;;;;;;;25.57;45.36;96226.00;5026751;28;20182;-83
2023/08/11 10:04:33;;;;;;;5.45;3.30;;;;;;;25.86;44.59;96226.25;5034981;28;20195;-82
2023/08/11 10:06:59;;;;;;;5.13;3.38;;;;;;;25.49;45.11;96220.19;5032209;28;20230;-82
2023/08/11 10:09:25;;;;;;;4.03;3.63;;;;;;;25.65;43.93;96228.34;5015556;28;20209;-82
2023/08/11 10:11:52;;;;;;;3.70;3.40;;;;;;;25.55;45.16;96229.94;5029905;28;20527;-81
2023/08/11 10:14:20;;;;;;;3.88;3.15;;;;;;;26.24;43.84;96225.88;5011463;28;20187;-81
2023/08/11 10:16:46;;;;;;;5.25;3.80;;;;;;;26.36;44.18;96223.22;5018179;28;20206;-82
2023/08/11 10:19:12;;;;;;;3.45;3.15;;;;;;;26.36;43.31;96225.88;5022837;28;20266;-82
2023/08/11 10:21:39;;;;;;;7.95;3.25;;;;;;;26.44;43.16;96225.56;5028570;28;20186;-81
2023/08/11 10:24:05;;;;;;;6.03;3.60;;;;;;;26.25;43.15;96224.84;5014023;28;20198;-81
2023/08/11 10:26:31;;;;;;;4.07;3.00;;;;;;;26.44;43.44;96230.91;5023647;28;20218;-81
2023/08/11 10:28:56;;;;;;;3.97;3.35;;;;;;;26.64;43.05;96230.56;5029089;28;20182;-82
2023/08/11 10:31:23;;;;;;;4.05;3.15;;;;;;;26.69;41.13;96228.03;5025997;28;20189;-81
2023/08/11 10:33:51;;;;;;;3.47;3.03;;;;;;;26.24;41.81;96224.03;5005477;28;20580;-82
2023/08/11 10:36:19;;;;;;;3.55;3.15;;;;;;;26.33;42.95;96231.66;5022848;28;20202;-82
2023/08/11 10:38:59;;;;;;;3.63;3.20;;;;;;;26.81;42.75;96224.28;5017140;28;20186;-84
2023/08/11 10:41:25;;;;;;;3.63;3.17;;;;;;;26.86;42.67;96226.28;5022455;28;20723;-83
2023/08/11 10:43:50;;;;;;;3.80;3.40;;;;;;;26.93;41.32;96226.13;5012617;28;20215;-84
2023/08/11 10:46:24;;;;;;;5.07;3.30;;;;;;;26.94;42.57;96227.75;5011107;28;20687;-83
2023/08/11 10:48:51;;;;;;;4.13;3.55;;;;;;;27.22;42.67;96227.06;5029444;28;20189;-83
2023/08/11 10:51:30;;;;;;;5.55;3.50;;;;;;;27.15;41.50;96232.50;5019245;28;20648;-82
2023/08/11 10:53:56;;;;;;;4.05;3.47;;;;;;;27.00;42.14;96221.50;5026280;28;20198;-83
2023/08/11 10:56:33;;;;;;;4.55;3.22;;;;;;;27.29;41.75;96222.38;5021617;28;20229;-83
2023/08/11 10:59:05;;;;;;;3.85;3.15;;;;;;;27.42;41.54;96223.97;5020791;28;20194;-83
2023/08/11 11:01:33;;;;;;;3.15;2.95;;;;;;;27.58;41.69;96223.22;5022662;28;20193;-84
2023/08/11 11:03:59;;;;;;;4.10;3.42;;;;;;;27.55;41.10;96213.00;5027968;28;20175;-84
2023/08/11 11:06:25;;;;;;;4.05;3.30;;;;;;;27.67;40.74;96213.00;5029022;28;20223;-83
2023/08/11 11:08:50;;;;;;;3.63;3.30;;;;;;;27.41;41.29;96209.81;5005073;28;20187;-83
2023/08/11 11:11:15;;;;;;;8.88;3.20;;;;;;;27.91;40.29;96215.28;5026662;28;20183;-83
2023/08/11 11:13:41;;;;;;;4.43;3.60;;;;;;;26.98;41.78;96207.59;5013925;28;20233;-83
2023/08/11 11:16:06;;;;;;;3.38;3.08;;;;;;;27.27;41.10;96217.28;5020140;28;20260;-84
2023/08/11 11:18:31;;;;;;;4.13;2.92;;;;;;;27.44;41.27;96208.53;5022197;28;20183;-82
2023/08/11 11:20:57;;;;;;;4.25;3.60;;;;;;;27.63;40.53;96205.44;5007257;28;20226;-82
2023/08/11 11:23:22;;;;;;;3.97;3.65;;;;;;;27.48;41.12;96209.69;5022733;28;20211;-84
2023/08/11 11:25:48;;;;;;;4.22;3.80;;;;;;;27.57;41.26;96201.06;5011208;28;20227;-84
2023/08/11 11:28:13;;;;;;;3.80;3.40;;;;;;;27.67;39.89;96189.81;5017082;28;20202;-84
2023/08/11 11:30:38;;;;;;;5.05;3.38;;;;;;;27.68;39.97;96191.41;5011896;28;20241;-82
2023/08/11 11:33:04;;;;;;;5.28;3.47;;;;;;;27.92;40.30;96184.09;5003560;28;20228;-82
2023/08/11 11:35:29;;;;;;;4.28;3.40;;;;;;;28.12;41.25;96183.63;5006541;28;20197;-83
2023/08/11 11:37:54;;;;;;;4.32;3.22;;;;;;;28.39;39.42;96189.97;5019188;28;20178;-84
2023/08/11 11:40:20;;;;;;;5.45;3.42;;;;;;;28.47;40.45;96194.88;5005042;28;20198;-84